Impacts METAR Board INFO
IDs:

KBOS - Boston/Logan Intl, MA, US

Updated at: 1416 UTC 19 Nov 2017
Potential Impact None Slight Moderate High
Time19/02Z 19/03Z 19/04Z 19/05Z 19/06Z 19/07Z 19/08Z 19/09Z 19/10Z 19/11Z 19/12Z 19/13Z 19/14Z
VIS10 10 10 9 10 10 10 10 9 6 6 10 6
CIG60 35 27 50 13 13 28 23 26 36 65 14 33
CoverOVCOVCOVCOVCOVCOVCOVCOVCOVCOVCOVCOVCOVC
FltCatVFRVFRMVFRVFRMVFRMVFRMVFRMVFRMVFRVFRVFRMVFRVFR
WX-RA-----RA-RA-RA-----RA-RA BR-RA BR-RA-RA BR
WDir120140190210170180190200190190200190190
WSpd7 8 7 8 5 11 11 10 14 11 16 11 12
WGst-- -- -- -- -- -- -- -- 21 -- 23 -- --
Raw hourly METARs
KBOS 190154Z 12007KT 10SM -RA FEW032 SCT040 OVC060 08/07 A2959 RMK AO2 SLP018 P0006 T00830072
KBOS 190254Z 14008KT 10SM BKN035 BKN044 OVC055 09/08 A2954 RMK AO2 RAE41 SLP004 P0000 60007 T00890078 58041
KBOS 190354Z 19007KT 10SM FEW023 BKN027 OVC039 09/08 A2951 RMK AO2 RAB29E37 SLP992 P0000 T00940083
KBOS 190454Z 21008KT 9SM -RA FEW028 BKN050 OVC095 11/09 A2948 RMK AO2 RAB11 SLP983 P0000 T01110094 401111011
KBOS 190554Z 17005KT 10SM -RA BKN013 BKN021 OVC045 10/10 A2943 RMK AO2 SLP966 P0003 60010 T01000100 10111 20078 58038
KBOS 190654Z 18011KT 10SM -RA BKN013 BKN022 OVC038 12/11 A2939 RMK AO2 PRESFR SLP950 P0000 T01170111
KBOS 190754Z 19011KT 10SM BKN028 OVC038 13/12 A2934 RMK AO2 RAE08 SLP934 P0001 T01280117
KBOS 190854Z 20010KT 10SM BKN023 OVC030 13/12 A2930 RMK AO2 SLP922 60001 T01330122 56044
KBOS 190954Z 19014G21KT 9SM -RA BKN026 OVC036 14/13 A2926 RMK AO2 RAB31 SLP909 P0000 T01440128
KBOS 191054Z 19011KT 6SM -RA BR SCT025 BKN036 OVC075 14/13 A2922 RMK AO2 SLP896 P0009 T01440133
KBOS 191154Z 20016G23KT 6SM -RA BR FEW021 SCT030 OVC065 14/13 A2921 RMK AO2 RAE11B14 SLP890 P0002 60012 70023 T01440133 10150 20100 56019
KBOS 191254Z 19011KT 10SM -RA BKN014 BKN065 OVC100 14/13 A2918 RMK AO2 SLP880 P0003 T01390133
KBOS 191354Z 19012KT 6SM -RA BR SCT018 BKN033 OVC070 14/13 A2917 RMK AO2 RAE1259B26 SLP877 P0002 T01390133